Time;durP1;ratioP1;P1;durP2;ratioP2;P2;SDS_P1;SDS_P2;PMS_P1;PMS_P2;Temp;Humidity;BMP_temperature;BMP_pressure;BME280_temperature;BME280_humidity;BME280_pressure;Samples;Min_cycle;Max_cycle;Signal;HPM_P1;HPM_P2
2022/09/23 00:00:05;;;;;;;3.73;3.30;;;11.20;99.90;;;;;;5006569;23;20540;-72
2022/09/23 00:03:30;;;;;;;3.70;3.40;;;11.20;99.90;;;;;;4998380;28;20456;-72
2022/09/23 00:06:37;;;;;;;3.60;3.30;;;11.20;99.90;;;;;;4993369;28;20487;-71
2022/09/23 00:09:57;;;;;;;3.30;3.00;;;11.10;99.90;;;;;;4989970;28;20465;-72
2022/09/23 00:12:58;;;;;;;3.63;3.33;;;11.10;99.90;;;;;;4980756;28;20449;-72
2022/09/23 00:19:39;;;;;;;3.30;3.10;;;11.00;99.90;;;;;;4981301;28;20485;-72
2022/09/23 00:22:49;;;;;;;3.07;2.73;;;11.00;99.90;;;;;;4985171;28;20847;-72
2022/09/23 00:25:55;;;;;;;3.57;3.27;;;11.00;99.90;;;;;;4986625;28;20477;-72
2022/09/23 00:29:28;;;;;;;3.47;3.17;;;11.00;99.90;;;;;;4981290;28;20477;-72
2022/09/23 00:32:43;;;;;;;3.27;2.97;;;10.90;99.90;;;;;;4986396;28;20549;-72
2022/09/23 00:36:09;;;;;;;5.03;3.20;;;10.90;99.90;;;;;;4987636;28;20601;-71
2022/09/23 00:39:11;;;;;;;3.23;3.03;;;10.80;99.90;;;;;;4984050;28;20546;-71
2022/09/23 00:42:31;;;;;;;4.70;3.27;;;10.80;99.90;;;;;;4986137;28;20465;-71
2022/09/23 00:45:57;;;;;;;3.90;3.50;;;10.70;99.90;;;;;;4986924;28;20613;-71
2022/09/23 00:49:26;;;;;;;3.37;3.07;;;10.70;99.90;;;;;;4954278;28;20577;-72
2022/09/23 00:52:39;;;;;;;3.60;2.67;;;10.70;99.90;;;;;;4986167;28;20540;-71
2022/09/23 00:58:52;;;;;;;3.00;2.80;;;10.70;99.90;;;;;;4980080;28;20492;-71
2022/09/23 01:02:00;;;;;;;2.90;2.70;;;10.70;99.90;;;;;;4985249;28;20464;-71
2022/09/23 01:05:11;;;;;;;3.70;2.70;;;10.70;99.90;;;;;;4985910;28;20615;-71
2022/09/23 01:08:33;;;;;;;2.70;2.50;;;10.70;99.90;;;;;;4983077;28;20660;-71
2022/09/23 01:11:55;;;;;;;3.50;3.07;;;10.60;99.90;;;;;;4983493;28;20453;-71
2022/09/23 01:14:59;;;;;;;3.10;2.80;;;10.60;99.90;;;;;;4984259;28;20977;-71
2022/09/23 01:18:20;;;;;;;4.15;2.90;;;10.60;99.90;;;;;;4980229;28;21136;-71
2022/09/23 01:25:30;;;;;;;2.50;2.37;;;10.50;99.90;;;;;;4985299;28;20561;-71
2022/09/23 01:28:56;;;;;;;3.00;2.80;;;10.40;99.90;;;;;;4978440;28;20484;-71
2022/09/23 01:32:27;;;;;;;2.80;2.60;;;10.40;99.90;;;;;;4976268;28;20464;-71
2022/09/23 01:35:51;;;;;;;;;;;;;;;;;;;;;
2022/09/23 01:39:27;;;;;;;2.90;2.70;;;10.40;99.90;;;;;;4981177;28;20851;-71
2022/09/23 01:46:06;;;;;;;2.77;2.57;;;10.40;99.90;;;;;;4985095;28;20473;-71
2022/09/23 01:49:14;;;;;;;2.90;2.70;;;10.50;99.90;;;;;;4984102;28;20489;-71
2022/09/23 01:52:31;;;;;;;;;;;;;;;;;;;;;
2022/09/23 01:55:42;;;;;;;4.10;2.97;;;10.30;99.90;;;;;;4984250;28;21014;-71
2022/09/23 01:59:20;;;;;;;2.80;2.60;;;10.30;99.90;;;;;;4982654;28;20489;-71
2022/09/23 02:02:28;;;;;;;;;;;;;;;;;;;;;
2022/09/23 02:05:41;;;;;;;4.23;2.73;;;10.30;99.90;;;;;;4979763;28;20486;-71
2022/09/23 02:09:05;;;;;;;3.10;2.90;;;10.30;99.90;;;;;;4985478;28;20502;-71
2022/09/23 02:12:14;;;;;;;3.37;2.87;;;10.20;99.90;;;;;;4987928;28;20469;-71
2022/09/23 02:15:39;;;;;;;2.60;2.50;;;10.20;99.90;;;;;;4983401;28;20467;-70
2022/09/23 02:18:44;;;;;;;3.20;3.00;;;10.20;99.90;;;;;;4979706;28;20467;-71
2022/09/23 02:21:56;;;;;;;3.10;2.83;;;10.10;99.90;;;;;;4984934;28;20564;-71
2022/09/23 02:28:18;;;;;;;3.13;2.83;;;10.10;99.90;;;;;;4983197;28;20460;-71
2022/09/23 02:34:53;;;;;;;2.60;2.50;;;10.10;99.90;;;;;;4983730;28;20465;-71
2022/09/23 02:38:00;;;;;;;2.70;2.50;;;10.10;99.90;;;;;;4982980;28;20879;-70
2022/09/23 02:41:36;;;;;;;2.60;2.40;;;10.10;99.90;;;;;;4986602;28;20564;-71
2022/09/23 02:44:47;;;;;;;2.87;2.67;;;10.10;99.90;;;;;;4979396;28;20453;-71
2022/09/23 02:47:46;;;;;;;3.00;2.80;;;10.10;99.90;;;;;;4979072;28;20527;-71
2022/09/23 02:51:09;;;;;;;3.23;2.93;;;10.10;99.90;;;;;;4988353;28;20473;-71
2022/09/23 02:54:21;;;;;;;3.37;2.70;;;10.10;99.90;;;;;;4987309;28;20461;-71
2022/09/23 02:57:28;;;;;;;2.60;2.47;;;10.00;99.90;;;;;;4978809;28;23338;-73
2022/09/23 03:00:23;;;;;;;2.90;2.70;;;10.00;99.90;;;;;;4985762;28;20485;-71
2022/09/23 03:04:07;;;;;;;2.67;2.47;;;10.00;99.90;;;;;;4988582;28;20581;-71
2022/09/23 03:07:30;;;;;;;3.67;2.47;;;10.00;99.90;;;;;;4984308;28;20623;-71
2022/09/23 03:14:16;;;;;;;2.70;2.50;;;9.90;99.90;;;;;;4942866;28;20852;-70
2022/09/23 03:17:48;;;;;;;2.70;2.50;;;9.90;99.90;;;;;;4941953;28;20598;-71
2022/09/23 03:21:02;;;;;;;3.07;2.77;;;9.90;99.90;;;;;;4989646;28;20684;-71
2022/09/23 03:24:15;;;;;;;3.13;2.90;;;9.90;99.90;;;;;;4979641;28;20465;-71
2022/09/23 03:27:37;;;;;;;2.83;2.63;;;9.90;99.90;;;;;;4974661;28;20539;-70
2022/09/23 03:30:47;;;;;;;2.70;2.50;;;9.90;99.90;;;;;;4987115;28;20482;-71
2022/09/23 03:37:03;;;;;;;3.00;2.80;;;9.90;99.90;;;;;;4984999;28;20575;-71
2022/09/23 03:40:14;;;;;;;2.67;2.47;;;10.00;99.90;;;;;;4985173;28;20485;-71
2022/09/23 03:43:34;;;;;;;3.73;3.50;;;10.00;99.90;;;;;;4984708;28;20485;-71
2022/09/23 03:46:39;;;;;;;;;;;;;;;;;;;;;
2022/09/23 03:50:00;;;;;;;3.30;2.40;;;10.00;99.90;;;;;;4989375;28;20464;-71
2022/09/23 03:53:00;;;;;;;2.60;2.40;;;10.00;99.90;;;;;;4997228;28;20478;-71
2022/09/23 03:56:05;;;;;;;2.60;2.40;;;10.00;99.90;;;;;;5003045;28;20489;-71
2022/09/23 03:59:37;;;;;;;4.33;2.83;;;9.90;99.90;;;;;;5004036;28;20485;-71
2022/09/23 04:03:09;;;;;;;;;;;;;;;;;;;;;
2022/09/23 04:06:10;;;;;;;5.37;3.07;;;10.00;99.90;;;;;;4993288;28;20530;-71
2022/09/23 04:12:33;;;;;;;3.40;3.10;;;9.90;99.90;;;;;;4982962;28;20540;-71
2022/09/23 04:18:56;;;;;;;3.30;3.10;;;10.00;99.90;;;;;;4989103;28;20527;-71
2022/09/23 04:22:02;;;;;;;2.43;2.23;;;10.00;99.90;;;;;;4985856;28;20493;-71
2022/09/23 04:25:16;;;;;;;4.00;3.10;;;10.00;99.90;;;;;;4985962;28;20600;-71
2022/09/23 04:28:27;;;;;;;3.40;2.93;;;10.00;99.90;;;;;;4987678;28;20464;-71
2022/09/23 04:31:32;;;;;;;3.13;2.77;;;10.00;99.90;;;;;;4989417;28;20445;-71
2022/09/23 04:34:44;;;;;;;6.70;2.77;;;10.00;99.90;;;;;;4929952;29;20460;-71
2022/09/23 04:37:56;;;;;;;3.77;2.60;;;10.00;99.90;;;;;;4925575;29;20498;-71
2022/09/23 04:41:12;;;;;;;2.80;2.60;;;9.90;99.90;;;;;;4929649;29;20488;-71
2022/09/23 04:44:19;;;;;;;3.10;2.83;;;9.90;99.90;;;;;;4922892;28;20471;-71
2022/09/23 04:47:30;;;;;;;3.13;2.87;;;9.90;99.90;;;;;;4922093;29;20479;-71
2022/09/23 04:51:03;;;;;;;2.90;2.70;;;10.00;99.90;;;;;;4920880;29;20447;-71
2022/09/23 04:54:43;;;;;;;4.27;3.33;;;10.00;99.90;;;;;;4925227;29;20539;-71
2022/09/23 04:58:02;;;;;;;3.23;2.87;;;10.00;99.90;;;;;;4892786;29;20488;-71
2022/09/23 05:01:38;;;;;;;3.57;3.20;;;9.90;99.90;;;;;;4926089;29;20483;-71
2022/09/23 05:04:36;;;;;;;3.60;3.30;;;9.90;99.90;;;;;;4925474;29;20474;-71
2022/09/23 05:07:53;;;;;;;3.93;2.97;;;9.90;99.90;;;;;;4918969;29;20483;-71
2022/09/23 05:10:48;;;;;;;3.93;3.20;;;9.90;99.90;;;;;;4928084;28;20977;-71
2022/09/23 05:14:02;;;;;;;4.10;3.10;;;9.90;99.90;;;;;;4977875;28;20465;-71
2022/09/23 05:17:24;;;;;;;3.83;3.53;;;9.90;99.90;;;;;;4983809;28;20492;-71
2022/09/23 05:20:33;;;;;;;4.13;3.40;;;9.90;99.90;;;;;;4984530;28;20493;-72
2022/09/23 05:23:50;;;;;;;;;;;;;;;;;;;;;
2022/09/23 05:26:59;;;;;;;3.63;3.20;;;9.90;99.90;;;;;;4997422;28;20480;-71
2022/09/23 05:30:04;;;;;;;3.73;3.37;;;9.90;99.90;;;;;;4995555;28;20516;-71
2022/09/23 05:33:04;;;;;;;3.77;3.47;;;9.90;99.90;;;;;;4979800;28;20445;-71
2022/09/23 05:36:19;;;;;;;3.90;3.50;;;10.00;99.90;;;;;;4976398;28;20492;-71
2022/09/23 05:39:16;;;;;;;3.77;3.20;;;10.00;99.90;;;;;;4977749;28;20477;-70
2022/09/23 05:42:06;;;;;;;3.60;3.30;;;10.00;99.90;;;;;;4984875;28;20521;-70
2022/09/23 05:48:21;;;;;;;7.53;3.47;;;10.00;99.90;;;;;;4974046;28;20501;-71
2022/09/23 05:51:27;;;;;;;3.80;3.50;;;10.00;99.90;;;;;;4984339;28;20505;-71
2022/09/23 05:54:38;;;;;;;4.40;3.67;;;10.00;99.90;;;;;;4986982;28;20480;-70
2022/09/23 05:57:31;;;;;;;4.90;3.50;;;10.00;99.90;;;;;;4980044;28;20488;-70
2022/09/23 06:00:28;;;;;;;4.00;3.70;;;10.00;99.90;;;;;;4976541;28;20477;-70
2022/09/23 06:03:21;;;;;;;3.63;3.33;;;10.00;99.90;;;;;;4978585;28;20462;-70
2022/09/23 06:06:16;;;;;;;4.17;3.77;;;10.10;99.90;;;;;;4984418;23;20496;-68
2022/09/23 06:09:10;;;;;;;7.00;4.20;;;10.10;99.90;;;;;;4997774;28;20456;-68
2022/09/23 06:12:01;;;;;;;4.27;3.57;;;10.10;99.90;;;;;;5002448;28;20483;-69
2022/09/23 06:14:55;;;;;;;4.03;3.63;;;10.10;99.90;;;;;;5001548;28;20555;-69
2022/09/23 06:17:56;;;;;;;4.57;4.10;;;10.10;99.90;;;;;;4978406;28;20997;-69
2022/09/23 06:20:50;;;;;;;8.33;4.37;;;10.10;99.90;;;;;;4984198;28;20850;-69
2022/09/23 06:23:43;;;;;;;4.47;4.07;;;10.20;99.90;;;;;;4983479;28;20445;-70
2022/09/23 06:26:37;;;;;;;4.40;4.00;;;10.20;99.90;;;;;;4985234;28;20986;-68
2022/09/23 06:29:32;;;;;;;5.13;4.23;;;10.20;99.90;;;;;;4982931;28;20456;-69
2022/09/23 06:32:28;;;;;;;4.10;3.80;;;10.20;99.90;;;;;;4986590;28;20484;-69
2022/09/23 06:35:21;;;;;;;4.00;3.70;;;10.20;99.90;;;;;;4987054;28;20472;-70
2022/09/23 06:38:21;;;;;;;5.33;4.17;;;10.20;99.90;;;;;;4992468;28;20480;-69
2022/09/23 06:41:19;;;;;;;3.73;3.40;;;10.20;99.90;;;;;;4986951;28;20901;-68
2022/09/23 06:44:07;;;;;;;4.37;4.07;;;10.20;99.90;;;;;;4986569;28;20916;-69
2022/09/23 06:46:59;;;;;;;5.73;4.10;;;10.20;99.90;;;;;;4990989;28;20513;-69
2022/09/23 06:50:05;;;;;;;4.93;4.43;;;10.30;99.90;;;;;;4984959;28;21016;-68
2022/09/23 06:53:04;;;;;;;4.07;3.67;;;10.20;99.90;;;;;;4986283;28;20445;-69
2022/09/23 06:55:58;;;;;;;5.20;4.43;;;10.30;99.90;;;;;;4981753;28;20488;-70
2022/09/23 06:58:55;;;;;;;4.77;4.20;;;10.30;99.90;;;;;;4988224;28;20457;-68
2022/09/23 07:01:49;;;;;;;4.10;3.80;;;10.30;99.90;;;;;;4990680;28;20487;-68
2022/09/23 07:04:44;;;;;;;4.77;4.47;;;10.30;99.90;;;;;;4984370;28;20449;-69
2022/09/23 07:07:34;;;;;;;4.57;4.17;;;10.30;99.90;;;;;;4986955;28;20526;-68
2022/09/23 07:10:27;;;;;;;4.53;4.23;;;10.40;99.90;;;;;;4981034;28;20480;-69
2022/09/23 07:13:17;;;;;;;4.67;4.27;;;10.40;99.90;;;;;;4985964;28;20452;-67
2022/09/23 07:16:13;;;;;;;6.50;4.13;;;10.40;99.90;;;;;;4984245;28;20516;-67
2022/09/23 07:19:07;;;;;;;4.57;4.17;;;10.50;99.90;;;;;;4986342;28;20464;-67
2022/09/23 07:21:57;;;;;;;5.03;4.20;;;10.50;99.90;;;;;;4985861;28;20897;-70
2022/09/23 07:24:48;;;;;;;5.20;4.70;;;10.60;99.90;;;;;;4986879;28;20463;-69
2022/09/23 07:27:41;;;;;;;4.60;4.20;;;10.60;99.90;;;;;;4980428;28;20495;-69
2022/09/23 07:30:34;;;;;;;6.13;4.10;;;10.70;99.90;;;;;;4982316;28;20472;-70
2022/09/23 07:33:28;;;;;;;8.37;4.20;;;10.80;99.90;;;;;;4985226;28;20850;-68
2022/09/23 07:36:26;;;;;;;4.47;4.07;;;10.80;99.90;;;;;;4987018;28;20485;-67
2022/09/23 07:39:16;;;;;;;4.40;4.10;;;10.90;99.90;;;;;;4988402;28;20461;-68
2022/09/23 07:42:05;;;;;;;4.70;4.27;;;11.00;99.90;;;;;;4981299;28;20466;-69
2022/09/23 07:44:56;;;;;;;5.33;4.83;;;11.10;99.90;;;;;;4981738;28;20464;-68
2022/09/23 07:47:55;;;;;;;4.70;4.30;;;11.10;99.90;;;;;;4988141;28;20831;-68
2022/09/23 07:50:49;;;;;;;5.23;4.80;;;11.20;99.90;;;;;;4986856;28;21316;-68
2022/09/23 07:53:41;;;;;;;4.70;4.30;;;11.30;99.90;;;;;;4985866;28;20465;-68
2022/09/23 07:56:33;;;;;;;5.90;5.30;;;11.40;99.90;;;;;;4985950;28;20485;-68
2022/09/23 07:59:35;;;;;;;5.00;4.10;;;11.40;99.90;;;;;;4982409;28;20451;-68
2022/09/23 08:02:28;;;;;;;4.33;3.93;;;11.50;99.90;;;;;;4984829;28;20485;-68
2022/09/23 08:05:27;;;;;;;4.17;3.80;;;11.60;99.90;;;;;;4984261;28;20477;-68
2022/09/23 08:08:24;;;;;;;4.50;4.10;;;11.70;99.90;;;;;;4991441;28;20453;-68
2022/09/23 08:11:14;;;;;;;4.40;4.00;;;11.80;99.90;;;;;;4986987;28;20450;-67
2022/09/23 08:14:08;;;;;;;4.90;4.00;;;11.90;99.90;;;;;;4983982;28;20450;-67
2022/09/23 08:16:57;;;;;;;4.30;3.70;;;11.90;99.90;;;;;;4988971;28;20868;-69
2022/09/23 08:19:52;;;;;;;4.83;3.90;;;12.00;99.90;;;;;;4988078;28;20551;-68
2022/09/23 08:22:49;;;;;;;5.30;4.10;;;12.10;99.90;;;;;;4987407;28;20568;-68
2022/09/23 08:25:48;;;;;;;4.43;4.13;;;12.10;99.90;;;;;;4987595;28;20461;-68
2022/09/23 08:28:43;;;;;;;4.63;3.53;;;12.20;99.90;;;;;;4985503;28;20971;-67
2022/09/23 08:31:38;;;;;;;4.60;3.80;;;12.30;99.90;;;;;;4989328;28;20878;-68
2022/09/23 08:34:36;;;;;;;5.47;4.00;;;12.30;99.90;;;;;;4985194;28;20536;-69
2022/09/23 08:37:27;;;;;;;5.73;3.83;;;12.30;99.90;;;;;;4987593;28;20493;-67
2022/09/23 08:40:19;;;;;;;4.13;3.73;;;12.40;99.90;;;;;;4989594;28;20458;-68
2022/09/23 08:43:20;;;;;;;4.23;3.80;;;12.50;99.90;;;;;;4986073;28;20481;-67
2022/09/23 08:46:16;;;;;;;6.77;3.97;;;12.50;99.90;;;;;;4983927;28;20486;-68
2022/09/23 08:49:16;;;;;;;4.00;3.60;;;12.60;99.90;;;;;;4983024;28;21020;-68
2022/09/23 08:52:14;;;;;;;4.50;4.10;;;12.60;99.90;;;;;;4989114;28;20449;-68
2022/09/23 08:55:05;;;;;;;7.40;3.60;;;12.70;99.90;;;;;;4988900;28;20970;-68
2022/09/23 08:58:22;;;;;;;4.07;3.67;;;12.80;99.90;;;;;;4988921;28;20461;-69
2022/09/23 09:01:22;;;;;;;5.10;4.20;;;12.90;99.90;;;;;;4988741;28;20823;-68
2022/09/23 09:04:24;;;;;;;4.67;4.20;;;13.00;99.90;;;;;;4985080;28;20948;-68
2022/09/23 09:07:28;;;;;;;4.30;3.90;;;13.10;99.90;;;;;;4981441;28;20946;-66
2022/09/23 09:10:34;;;;;;;4.20;3.77;;;13.10;99.90;;;;;;4978676;28;20460;-68
2022/09/23 09:13:47;;;;;;;3.80;3.37;;;13.20;99.90;;;;;;4984279;28;20445;-68
2022/09/23 09:16:59;;;;;;;3.53;3.23;;;13.30;99.90;;;;;;4981965;28;21223;-68
2022/09/23 09:20:00;;;;;;;4.17;3.50;;;13.40;99.90;;;;;;4983412;28;20473;-68
2022/09/23 09:22:58;;;;;;;5.53;3.57;;;13.50;99.90;;;;;;4985505;28;20898;-68
2022/09/23 09:25:50;;;;;;;3.93;3.50;;;13.60;99.90;;;;;;4978515;28;20857;-69
2022/09/23 09:28:42;;;;;;;3.93;3.60;;;13.70;99.90;;;;;;4984092;28;20460;-67
2022/09/23 09:31:35;;;;;;;4.73;3.63;;;13.80;99.90;;;;;;4984071;28;20463;-67
2022/09/23 09:34:40;;;;;;;3.60;3.00;;;13.80;99.90;;;;;;4979026;28;20457;-68
2022/09/23 09:37:36;;;;;;;4.40;3.40;;;13.90;99.90;;;;;;4987841;28;20488;-68
2022/09/23 09:40:28;;;;;;;3.67;3.20;;;14.00;99.90;;;;;;4988111;28;20838;-67
2022/09/23 09:43:22;;;;;;;3.60;3.17;;;14.10;99.90;;;;;;4984398;28;21056;-71
2022/09/23 09:46:29;;;;;;;3.87;3.13;;;14.20;99.90;;;;;;4983631;28;20531;-68
2022/09/23 09:49:37;;;;;;;4.13;3.73;;;14.30;99.90;;;;;;4987302;28;20970;-67
2022/09/23 09:52:32;;;;;;;8.27;3.80;;;14.50;99.90;;;;;;4986156;28;20448;-69
2022/09/23 09:55:36;;;;;;;4.20;3.70;;;14.60;99.90;;;;;;4979669;28;20480;-69
2022/09/23 09:58:44;;;;;;;4.83;3.50;;;14.70;99.90;;;;;;4980793;28;20537;-67
2022/09/23 10:01:40;;;;;;;5.90;3.43;;;14.80;99.90;;;;;;4983590;28;20572;-69
2022/09/23 10:04:38;;;;;;;4.10;3.47;;;14.90;99.90;;;;;;4979973;28;20472;-70
2022/09/23 10:07:36;;;;;;;3.83;3.53;;;15.10;99.90;;;;;;4984933;28;20496;-69
2022/09/23 10:10:28;;;;;;;3.00;2.77;;;15.20;99.90;;;;;;4983750;28;20462;-69
2022/09/23 10:13:22;;;;;;;3.07;2.83;;;15.40;99.90;;;;;;4981949;28;20452;-68
2022/09/23 10:16:25;;;;;;;5.20;3.27;;;15.50;99.90;;;;;;4984813;28;20472;-69
2022/09/23 10:19:25;;;;;;;2.77;2.57;;;15.60;99.90;;;;;;4987034;28;20460;-68
2022/09/23 10:22:28;;;;;;;3.93;3.10;;;15.70;99.90;;;;;;4979809;28;20786;-68
2022/09/23 10:25:26;;;;;;;3.17;2.70;;;15.80;99.90;;;;;;4984209;28;20588;-67
2022/09/23 10:28:39;;;;;;;3.13;2.80;;;15.90;99.90;;;;;;4988609;28;20528;-68
2022/09/23 10:31:30;;;;;;;3.70;3.10;;;16.00;99.90;;;;;;4979716;28;20540;-68
2022/09/23 10:34:27;;;;;;;5.07;2.83;;;16.10;99.90;;;;;;4981743;28;20464;-68
2022/09/23 10:37:21;;;;;;;3.10;2.80;;;16.20;99.90;;;;;;4984647;28;20485;-68
2022/09/23 10:47:07;;;;;;;2.90;2.67;;;16.50;99.90;;;;;;4983074;28;20526;-68
2022/09/23 10:50:18;;;;;;;3.33;2.80;;;16.50;99.90;;;;;;4984471;28;20993;-69
2022/09/23 10:53:16;;;;;;;3.40;2.83;;;16.60;99.90;;;;;;4983731;28;20774;-69
2022/09/23 10:56:21;;;;;;;4.83;3.07;;;16.70;99.90;;;;;;4983346;28;20476;-69
2022/09/23 10:59:40;;;;;;;2.60;2.40;;;16.70;99.90;;;;;;4983998;28;20449;-69
2022/09/23 11:02:55;;;;;;;2.50;2.40;;;16.80;99.90;;;;;;4978654;28;20457;-69
2022/09/23 11:05:53;;;;;;;4.53;2.70;;;16.90;99.90;;;;;;4981914;28;20484;-68
2022/09/23 11:09:09;;;;;;;3.57;2.70;;;17.00;99.90;;;;;;4978750;28;20469;-68
2022/09/23 11:12:15;;;;;;;3.20;2.53;;;17.00;99.90;;;;;;4987477;28;20568;-69
2022/09/23 11:15:20;;;;;;;2.53;2.20;;;17.10;99.90;;;;;;4986456;28;20461;-69
2022/09/23 11:18:46;;;;;;;2.77;2.57;;;17.10;99.90;;;;;;4983987;28;20569;-69
2022/09/23 11:21:56;;;;;;;2.10;1.97;;;17.20;99.90;;;;;;4889854;29;21010;-68
2022/09/23 11:25:11;;;;;;;2.23;2.03;;;17.30;99.90;;;;;;4937550;28;23806;-68
2022/09/23 11:28:44;;;;;;;2.50;2.30;;;17.30;99.90;;;;;;4979053;28;21144;-69
2022/09/23 11:32:01;;;;;;;;;;;;;;;;;;;;;
2022/09/23 11:35:16;;;;;;;3.00;2.10;;;17.50;99.90;;;;;;4978014;28;20453;-69
2022/09/23 11:38:11;;;;;;;2.63;2.43;;;17.60;99.90;;;;;;4984574;28;20540;-68
2022/09/23 11:41:01;;;;;;;2.60;2.40;;;17.60;99.90;;;;;;4979924;28;20966;-68
2022/09/23 11:43:57;;;;;;;3.53;2.23;;;17.60;99.90;;;;;;4969060;28;22050;-69
2022/09/23 11:46:58;;;;;;;2.20;1.93;;;17.60;99.90;;;;;;4968870;28;20499;-68
2022/09/23 11:49:53;;;;;;;3.90;2.03;;;17.60;99.90;;;;;;4977340;28;20457;-68
2022/09/23 11:52:50;;;;;;;2.13;1.93;;;17.60;99.90;;;;;;4977029;28;20965;-68
2022/09/23 11:55:49;;;;;;;3.27;2.23;;;17.60;99.90;;;;;;4983945;28;20485;-68
2022/09/23 11:58:58;;;;;;;2.13;1.93;;;17.70;99.90;;;;;;4983651;28;20460;-68
2022/09/23 12:01:51;;;;;;;2.30;2.10;;;17.70;99.90;;;;;;4980742;28;20496;-68
2022/09/23 12:05:16;;;;;;;2.33;2.10;;;17.70;99.90;;;;;;4976690;28;20513;-68
2022/09/23 12:08:12;;;;;;;1.90;1.77;;;17.70;99.90;;;;;;5007806;23;20486;-72
2022/09/23 12:11:08;;;;;;;2.43;2.23;;;17.80;99.90;;;;;;5040959;28;20458;-72
2022/09/23 12:14:13;;;;;;;2.00;1.90;;;17.80;99.90;;;;;;5036989;28;20462;-71
2022/09/23 12:17:28;;;;;;;2.33;1.80;;;17.90;99.90;;;;;;5037748;28;20489;-72
2022/09/23 12:20:44;;;;;;;2.33;1.90;;;17.90;99.90;;;;;;5016966;28;20950;-72
2022/09/23 12:23:53;;;;;;;4.43;1.77;;;17.90;99.90;;;;;;5036411;28;20472;-72
2022/09/23 12:26:50;;;;;;;1.90;1.80;;;18.00;99.90;;;;;;5022593;28;20482;-72
2022/09/23 12:29:42;;;;;;;2.00;1.80;;;18.00;99.90;;;;;;5025561;28;20451;-72
2022/09/23 12:32:32;;;;;;;1.97;1.40;;;18.10;99.90;;;;;;5024790;28;20458;-72
2022/09/23 12:35:28;;;;;;;2.10;1.90;;;18.20;99.90;;;;;;5016353;28;20968;-71
2022/09/23 12:38:21;;;;;;;1.83;1.73;;;18.30;99.90;;;;;;5021717;28;20475;-70
2022/09/23 12:41:32;;;;;;;1.90;1.70;;;18.30;99.90;;;;;;5027644;28;20462;-70
2022/09/23 12:44:31;;;;;;;2.07;1.87;;;18.30;99.90;;;;;;5016943;28;20479;-70
2022/09/23 12:47:43;;;;;;;2.00;1.90;;;18.40;99.90;;;;;;5012313;28;20896;-69
2022/09/23 12:51:02;;;;;;;3.27;1.67;;;18.40;99.90;;;;;;5016640;28;20452;-71
2022/09/23 12:54:22;;;;;;;2.63;2.20;;;18.40;99.90;;;;;;5015905;28;20963;-72
2022/09/23 12:57:14;;;;;;;2.33;2.13;;;18.30;99.90;;;;;;5014087;28;20467;-70
2022/09/23 13:00:23;;;;;;;2.13;1.93;;;18.30;99.90;;;;;;5014945;28;21001;-69
2022/09/23 13:06:40;;;;;;;2.17;1.73;;;18.30;99.90;;;;;;5009149;28;20478;-70
2022/09/23 13:09:39;;;;;;;2.13;2.03;;;18.30;99.90;;;;;;5014871;28;20489;-70
2022/09/23 13:12:39;;;;;;;2.47;2.30;;;18.40;99.90;;;;;;5009077;28;20453;-70
2022/09/23 13:15:33;;;;;;;2.30;2.20;;;18.40;99.90;;;;;;5009002;28;20488;-70
2022/09/23 13:18:51;;;;;;;1.90;1.80;;;18.40;99.90;;;;;;5007676;28;20463;-70
2022/09/23 13:22:06;;;;;;;2.70;2.33;;;18.50;99.90;;;;;;5010964;28;20541;-70
2022/09/23 13:25:15;;;;;;;2.30;2.10;;;18.50;99.90;;;;;;5016667;28;20471;-70
2022/09/23 13:28:20;;;;;;;1.87;1.77;;;18.60;99.90;;;;;;5007190;28;20471;-70
2022/09/23 13:31:15;;;;;;;2.23;2.03;;;18.60;99.90;;;;;;5012395;28;20456;-70
2022/09/23 13:34:11;;;;;;;2.13;2.03;;;18.60;99.90;;;;;;5008459;28;20475;-70
2022/09/23 13:37:19;;;;;;;2.37;2.17;;;18.60;99.90;;;;;;5014287;28;20483;-70
2022/09/23 13:40:22;;;;;;;2.17;1.67;;;18.60;99.90;;;;;;5007353;28;20510;-68
2022/09/23 13:43:30;;;;;;;2.10;2.00;;;18.60;99.90;;;;;;5027694;28;21022;-70
2022/09/23 13:46:25;;;;;;;2.90;2.20;;;18.60;99.90;;;;;;5015351;28;20484;-70
2022/09/23 13:49:29;;;;;;;3.00;2.10;;;18.60;99.90;;;;;;5014541;28;21011;-70
2022/09/23 13:52:26;;;;;;;3.00;2.23;;;18.60;99.90;;;;;;5020169;28;20609;-70
2022/09/23 13:55:29;;;;;;;2.30;2.20;;;18.60;99.90;;;;;;5016596;28;20493;-70
2022/09/23 13:58:30;;;;;;;2.13;1.93;;;18.50;99.90;;;;;;5022986;28;20473;-70
2022/09/23 14:01:23;;;;;;;3.03;2.73;;;18.60;99.90;;;;;;5023661;28;20440;-69
2022/09/23 14:04:26;;;;;;;2.87;2.40;;;18.50;99.90;;;;;;5018972;28;20476;-69
2022/09/23 14:07:21;;;;;;;3.23;2.57;;;18.50;99.90;;;;;;5026082;28;20490;-70
2022/09/23 14:10:21;;;;;;;2.60;2.40;;;18.40;99.90;;;;;;5019117;28;20998;-70
2022/09/23 14:13:17;;;;;;;2.43;2.10;;;18.40;99.90;;;;;;5023988;28;20444;-70
2022/09/23 14:16:15;;;;;;;2.80;2.60;;;18.40;99.90;;;;;;5021719;28;20475;-70
2022/09/23 14:19:04;;;;;;;2.87;2.37;;;18.50;99.90;;;;;;5027226;28;21005;-70
2022/09/23 14:21:57;;;;;;;2.23;1.83;;;18.50;99.90;;;;;;5029053;28;20486;-70
2022/09/23 14:24:53;;;;;;;2.13;2.03;;;18.50;99.90;;;;;;5020719;28;21029;-70
2022/09/23 14:27:46;;;;;;;2.17;2.07;;;18.40;99.90;;;;;;5027618;28;20482;-70
2022/09/23 14:30:37;;;;;;;2.60;2.00;;;18.40;99.90;;;;;;5013583;28;20451;-70
2022/09/23 14:33:27;;;;;;;1.93;1.83;;;18.40;99.90;;;;;;5026501;28;20455;-70
2022/09/23 14:39:32;;;;;;;2.07;1.97;;;18.40;99.90;;;;;;5011574;28;21019;-70
2022/09/23 14:42:23;;;;;;;2.37;2.17;;;18.40;99.90;;;;;;5021308;28;20454;-69
2022/09/23 14:45:16;;;;;;;2.30;2.20;;;18.30;99.90;;;;;;5020244;28;20474;-72
2022/09/23 14:48:07;;;;;;;2.30;2.10;;;18.30;99.90;;;;;;5019115;28;20475;-71
2022/09/23 14:50:57;;;;;;;2.80;2.30;;;18.30;99.90;;;;;;5012965;28;20994;-72
2022/09/23 14:53:49;;;;;;;2.47;2.37;;;18.20;99.90;;;;;;5009070;28;20459;-72
2022/09/23 14:56:46;;;;;;;2.30;2.00;;;18.20;99.90;;;;;;5009991;28;20973;-72
2022/09/23 14:59:37;;;;;;;2.63;2.43;;;18.10;99.90;;;;;;5013186;28;20454;-72
2022/09/23 15:02:31;;;;;;;3.80;2.40;;;18.10;99.90;;;;;;5008463;28;20743;-72
2022/09/23 15:05:38;;;;;;;2.83;2.33;;;18.00;99.90;;;;;;5002948;28;24540;-72
2022/09/23 15:08:29;;;;;;;3.13;2.17;;;18.00;99.90;;;;;;5023597;28;20526;-72
2022/09/23 15:11:21;;;;;;;2.53;2.33;;;18.00;99.90;;;;;;5027876;28;20452;-72
2022/09/23 15:14:11;;;;;;;4.20;2.30;;;18.00;99.90;;;;;;5018238;28;20459;-71
2022/09/23 15:17:31;;;;;;;2.33;2.23;;;17.90;99.90;;;;;;4999622;28;20487;-71
2022/09/23 15:20:24;;;;;;;2.27;2.07;;;17.90;99.90;;;;;;5007631;28;20803;-72
2022/09/23 15:23:33;;;;;;;2.77;2.57;;;17.90;99.90;;;;;;5028621;28;20504;-72
2022/09/23 15:26:29;;;;;;;2.60;2.40;;;17.90;99.90;;;;;;5011643;28;20609;-71
2022/09/23 15:29:20;;;;;;;2.10;1.90;;;17.90;99.90;;;;;;5020502;28;20845;-72
2022/09/23 15:32:09;;;;;;;1.93;1.83;;;17.80;99.90;;;;;;5024336;28;20451;-71
2022/09/23 15:34:59;;;;;;;2.27;2.07;;;17.80;99.90;;;;;;5024928;28;20444;-72
2022/09/23 15:37:50;;;;;;;5.20;2.43;;;17.80;99.90;;;;;;5031784;28;20822;-72
2022/09/23 15:40:43;;;;;;;2.23;2.10;;;17.70;99.90;;;;;;5025980;28;20997;-71
2022/09/23 15:43:40;;;;;;;2.63;2.43;;;17.70;99.90;;;;;;5019981;28;20494;-72
2022/09/23 15:46:39;;;;;;;3.03;2.83;;;17.60;99.90;;;;;;5023535;28;20562;-72
2022/09/23 15:49:34;;;;;;;2.70;2.40;;;17.60;99.90;;;;;;5021063;28;20968;-72
2022/09/23 15:52:25;;;;;;;2.47;2.10;;;17.60;99.90;;;;;;5022777;28;20451;-72
2022/09/23 15:55:21;;;;;;;2.67;2.47;;;17.60;99.90;;;;;;5026773;28;20471;-71
2022/09/23 15:58:12;;;;;;;3.03;2.70;;;17.50;99.90;;;;;;5028380;28;20467;-71
2022/09/23 16:01:15;;;;;;;3.00;2.70;;;17.50;99.90;;;;;;5022011;28;20455;-71
2022/09/23 16:04:05;;;;;;;2.23;2.03;;;17.50;99.90;;;;;;5024774;28;20463;-72
2022/09/23 16:06:57;;;;;;;2.60;2.30;;;17.50;99.90;;;;;;5027039;28;20483;-71
2022/09/23 16:09:46;;;;;;;2.43;2.23;;;17.50;99.90;;;;;;5024238;28;20457;-71
2022/09/23 16:12:34;;;;;;;2.40;2.20;;;17.40;99.90;;;;;;5025973;28;20467;-72
2022/09/23 16:15:27;;;;;;;2.43;2.23;;;17.30;99.90;;;;;;5015905;28;22073;-70
2022/09/23 16:18:15;;;;;;;2.40;2.20;;;17.30;99.90;;;;;;5027073;28;20475;-72
2022/09/23 16:21:12;;;;;;;2.57;2.27;;;17.30;99.90;;;;;;5031922;28;20450;-71
2022/09/23 16:24:03;;;;;;;4.97;2.80;;;17.30;99.90;;;;;;5025265;28;20456;-72
2022/09/23 16:26:58;;;;;;;2.33;2.13;;;17.20;99.90;;;;;;5021606;28;20869;-72
2022/09/23 16:29:48;;;;;;;2.80;2.30;;;17.20;99.90;;;;;;5028958;28;20975;-72
2022/09/23 16:32:36;;;;;;;2.67;2.47;;;17.20;99.90;;;;;;5025557;28;20466;-72
2022/09/23 16:35:26;;;;;;;3.10;2.90;;;17.10;99.90;;;;;;5025686;28;20467;-71
2022/09/23 16:38:17;;;;;;;3.10;2.80;;;17.10;99.90;;;;;;5031124;28;20851;-71
2022/09/23 16:41:07;;;;;;;3.40;3.10;;;17.10;99.90;;;;;;5024850;28;20971;-72
2022/09/23 16:43:56;;;;;;;3.50;3.10;;;17.10;99.90;;;;;;5023508;28;20464;-71
2022/09/23 16:46:46;;;;;;;2.60;2.40;;;17.00;99.90;;;;;;5016622;28;20890;-71
2022/09/23 16:49:39;;;;;;;4.10;3.10;;;17.00;99.90;;;;;;5020779;28;20456;-72
2022/09/23 16:52:29;;;;;;;3.00;2.70;;;16.90;99.90;;;;;;5025030;28;20447;-72